Sand Point, Michigan
Current Conditions -  °F | °C
As of 5:54 AM on Friday 19 Dec 2014 (Local Time) from KBAX Reporting Station
Overcast Overcast  
Wind Chill: 15°   Ceiling: 2200
Heat Index: 22°   Visibility: 10mi
Dew Point: 20°   Wind: 6mph
Humidity: 93%   Direction: 270°W
Pressure: 30.22"   Gusts: NA
Location:  43.8338°N, 83.2671°W
Report Text: KBAX 191054Z AUTO 27005KT 10SM OVC022 M05/M06 A3022 RMK AO2 T10551065
Loading
Personal Weather Stations






























Interactive Weather Map New forecast layout! Learn more

10-Day Weather Forecast

Advertisements
Track Severe Weather on mobile